createdAt,value
2022-08-04T00:00:13.136Z,5.50
2022-08-04T00:03:08.295Z,4.90
2022-08-04T00:05:42.153Z,4.50
2022-08-04T00:08:40.379Z,4.30
2022-08-04T00:11:08.717Z,4.50
2022-08-04T00:13:58.090Z,4.40
2022-08-04T00:16:38.263Z,5.30
2022-08-04T00:19:30.680Z,4.70
2022-08-04T00:22:01.465Z,4.80
2022-08-04T00:24:30.662Z,4.30
2022-08-04T00:26:58.019Z,4.60
2022-08-04T00:29:25.785Z,4.80
2022-08-04T00:31:55.906Z,4.90
2022-08-04T00:34:26.986Z,4.60
2022-08-04T00:36:55.591Z,4.00
2022-08-04T00:39:23.377Z,4.70
2022-08-04T00:42:12.362Z,5.10
2022-08-04T00:45:20.882Z,4.20
2022-08-04T00:48:00.526Z,4.70
2022-08-04T00:50:31.976Z,4.90
2022-08-04T00:53:13.255Z,4.20
2022-08-04T00:56:04.373Z,4.40
2022-08-04T00:59:05.923Z,4.80
2022-08-04T01:02:02.159Z,4.80
2022-08-04T01:04:47.231Z,4.30
2022-08-04T01:07:14.482Z,4.90
2022-08-04T01:10:30.381Z,4.90
2022-08-04T01:13:24.148Z,4.90
2022-08-04T01:16:03.964Z,3.80
2022-08-04T01:18:40.777Z,4.40
2022-08-04T01:21:35.879Z,4.30
2022-08-04T01:24:12.245Z,4.80
2022-08-04T01:26:53.858Z,4.70
2022-08-04T01:29:43.887Z,5.00
2022-08-04T01:32:35.512Z,5.30
2022-08-04T01:35:48.018Z,5.20
2022-08-04T01:38:35.553Z,4.40
2022-08-04T01:41:07.663Z,5.20
2022-08-04T01:43:36.752Z,4.80
2022-08-04T01:46:05.971Z,4.60
2022-08-04T01:48:34.331Z,5.70
2022-08-04T01:51:06.678Z,5.30
2022-08-04T01:53:35.775Z,4.80
2022-08-04T01:56:04.656Z,5.20
2022-08-04T01:58:33.275Z,5.00
2022-08-04T02:01:09.196Z,4.00
2022-08-04T02:04:19.520Z,5.10
2022-08-04T02:06:51.970Z,5.20
2022-08-04T02:09:54.634Z,4.70
2022-08-04T02:12:26.617Z,4.80
2022-08-04T02:15:06.259Z,4.70
2022-08-04T02:17:43.682Z,5.20
2022-08-04T02:20:23.497Z,5.50
2022-08-04T02:23:00.407Z,5.00
2022-08-04T02:25:29.229Z,4.50
2022-08-04T02:28:11.574Z,4.60
2022-08-04T02:30:45.059Z,4.90
2022-08-04T02:33:13.633Z,5.00
2022-08-04T02:35:40.913Z,4.90
2022-08-04T02:38:32.637Z,5.00
2022-08-04T02:41:00.709Z,4.90
2022-08-04T02:43:51.836Z,5.50
2022-08-04T02:46:19.743Z,5.30
2022-08-04T02:48:48.350Z,5.40
2022-08-04T02:51:17.026Z,5.10
2022-08-04T02:53:44.418Z,5.20
2022-08-04T02:56:11.989Z,5.10
2022-08-04T02:58:39.434Z,5.10
2022-08-04T03:01:06.840Z,5.10
2022-08-04T03:03:56.066Z,5.50
2022-08-04T03:06:35.601Z,4.70
2022-08-04T03:09:45.863Z,4.80
2022-08-04T03:12:33.392Z,5.10
2022-08-04T03:15:41.096Z,6.20
2022-08-04T03:18:36.509Z,5.70
2022-08-04T03:21:19.252Z,5.70
2022-08-04T03:23:55.284Z,5.00
2022-08-04T03:26:38.201Z,5.60
2022-08-04T03:29:36.243Z,5.90
2022-08-04T03:32:34.045Z,6.00
2022-08-04T03:35:23.352Z,7.20
2022-08-04T03:37:53.742Z,6.20
2022-08-04T03:40:47.519Z,7.20
2022-08-04T03:43:56.941Z,7.10
2022-08-04T03:46:17.146Z,5.70
2022-08-04T03:49:09.589Z,6.10
2022-08-04T03:52:02.443Z,5.80
2022-08-04T03:54:45.261Z,5.50
2022-08-04T03:57:22.014Z,6.50
2022-08-04T04:00:05.367Z,6.30
2022-08-04T04:03:13.484Z,6.20
2022-08-04T04:06:27.631Z,7.20
2022-08-04T04:09:16.285Z,7.50
2022-08-04T04:11:54.183Z,6.50
2022-08-04T04:14:48.480Z,6.60
2022-08-04T04:17:57.816Z,5.80
2022-08-04T04:20:43.706Z,6.20
2022-08-04T04:23:32.774Z,6.20
2022-08-04T04:26:19.583Z,7.50
2022-08-04T04:29:10.897Z,7.70
2022-08-04T04:31:52.594Z,7.50
2022-08-04T04:34:28.956Z,6.90
2022-08-04T04:36:59.384Z,6.70
2022-08-04T04:39:41.230Z,7.40
2022-08-04T04:42:36.386Z,8.50
2022-08-04T04:45:15.520Z,8.10
2022-08-04T04:48:09.444Z,7.80
2022-08-04T04:50:49.962Z,7.60
2022-08-04T04:53:34.007Z,7.10
2022-08-04T04:56:06.687Z,8.40
2022-08-04T04:58:34.759Z,7.10
2022-08-04T05:01:24.646Z,7.60
2022-08-04T05:04:20.467Z,7.90
2022-08-04T05:07:12.259Z,7.50
2022-08-04T05:10:11.401Z,7.30
2022-08-04T05:14:35.206Z,8.40
2022-08-04T05:15:43.379Z,9.70
2022-08-04T05:18:12.713Z,8.10
2022-08-04T05:20:45.979Z,8.40
2022-08-04T05:23:18.717Z,8.70
2022-08-04T05:26:06.900Z,9.20
2022-08-04T05:28:49.106Z,9.90
2022-08-04T05:31:26.500Z,9.80
2022-08-04T05:34:32.766Z,10.00
2022-08-04T05:37:02.287Z,10.00
2022-08-04T05:39:39.670Z,10.20
2022-08-04T05:42:07.449Z,9.70
2022-08-04T05:44:35.195Z,10.30
2022-08-04T05:47:02.751Z,11.20
2022-08-04T05:49:30.103Z,11.90
2022-08-04T05:52:00.920Z,9.90
2022-08-04T05:54:29.526Z,10.90
2022-08-04T05:56:57.088Z,9.50
2022-08-04T05:59:28.407Z,9.70
2022-08-04T06:01:58.233Z,10.00
2022-08-04T06:04:28.675Z,10.20
2022-08-04T06:06:56.133Z,11.30
2022-08-04T06:09:23.591Z,9.00
2022-08-04T06:12:00.543Z,11.20
2022-08-04T06:14:51.069Z,9.90
2022-08-04T06:18:35.216Z,10.30
2022-08-04T06:20:47.427Z,10.40
2022-08-04T06:23:17.852Z,10.90
2022-08-04T06:25:53.502Z,10.50
2022-08-04T06:28:20.861Z,10.00
2022-08-04T06:30:50.138Z,10.60
2022-08-04T06:33:54.769Z,9.50
2022-08-04T06:36:22.760Z,11.10
2022-08-04T06:38:58.336Z,12.50
2022-08-04T06:41:27.610Z,9.60
2022-08-04T06:43:54.961Z,9.70
2022-08-04T06:46:22.319Z,10.60
2022-08-04T06:48:50.749Z,11.60
2022-08-04T06:51:30.525Z,12.70
2022-08-04T06:54:02.923Z,11.40
2022-08-04T06:56:31.092Z,11.80
2022-08-04T06:58:58.451Z,11.90
2022-08-04T07:01:26.051Z,12.00
2022-08-04T07:03:53.366Z,13.50
2022-08-04T07:06:22.665Z,12.60
2022-08-04T07:08:50.227Z,12.80
2022-08-04T07:11:17.992Z,15.00
2022-08-04T07:13:46.883Z,14.60
2022-08-04T07:16:15.267Z,13.10
2022-08-04T07:18:42.820Z,14.20
2022-08-04T07:21:10.077Z,12.60
2022-08-04T07:23:37.430Z,15.00
2022-08-04T07:26:12.693Z,14.00
2022-08-04T07:28:41.272Z,15.80
2022-08-04T07:31:32.978Z,12.20
2022-08-04T07:34:16.691Z,13.20
2022-08-04T07:36:53.132Z,13.30
2022-08-04T07:39:29.695Z,13.10
2022-08-04T07:41:59.083Z,13.70
2022-08-04T07:44:26.723Z,12.40
2022-08-04T07:46:54.285Z,12.60
2022-08-04T07:49:55.516Z,14.20
2022-08-04T07:52:09.586Z,13.80
2022-08-04T07:54:36.936Z,12.70
2022-08-04T07:57:04.292Z,14.30
2022-08-04T07:59:31.953Z,13.80
2022-08-04T08:02:00.445Z,13.00
2022-08-04T08:04:27.687Z,14.30
2022-08-04T08:06:55.349Z,13.80
2022-08-04T08:09:22.805Z,13.60
2022-08-04T08:12:38.168Z,14.90
2022-08-04T08:14:40.457Z,16.10
2022-08-04T08:17:08.021Z,13.70
2022-08-04T08:19:35.883Z,14.40
2022-08-04T08:22:03.545Z,15.50
2022-08-04T08:24:36.018Z,13.90
2022-08-04T08:27:07.370Z,14.40
2022-08-04T08:29:35.659Z,14.70
2022-08-04T08:32:08.065Z,15.50
2022-08-04T08:34:36.808Z,13.70
2022-08-04T08:37:14.401Z,14.10
2022-08-04T08:39:47.167Z,14.80
2022-08-04T08:42:36.149Z,14.70
2022-08-04T08:45:23.269Z,15.30
2022-08-04T08:48:15.302Z,13.60
2022-08-04T08:51:07.859Z,14.60
2022-08-04T08:53:57.320Z,13.10
2022-08-04T08:56:48.228Z,13.30
2022-08-04T08:59:30.840Z,12.30
2022-08-04T09:02:06.388Z,13.50
2022-08-04T09:04:43.573Z,12.10
2022-08-04T09:07:28.747Z,12.40
2022-08-04T09:10:04.356Z,11.90
2022-08-04T09:13:21.831Z,12.20
2022-08-04T09:16:04.439Z,12.30
2022-08-04T09:18:55.101Z,11.60
2022-08-04T09:21:39.983Z,12.80
2022-08-04T09:24:35.859Z,11.50
2022-08-04T09:27:02.265Z,11.00
2022-08-04T09:30:01.886Z,10.80
2022-08-04T09:32:38.453Z,11.90
2022-08-04T09:35:42.670Z,10.60
2022-08-04T09:38:52.585Z,11.70
2022-08-04T09:41:54.078Z,10.70
2022-08-04T09:44:50.139Z,12.00
2022-08-04T09:47:39.608Z,10.70
2022-08-04T09:50:29.666Z,11.50
2022-08-04T09:53:40.345Z,10.90
2022-08-04T09:56:41.692Z,11.90
2022-08-04T09:59:27.989Z,10.90
2022-08-04T10:02:00.428Z,9.60
2022-08-04T10:04:29.767Z,10.80
2022-08-04T10:07:12.482Z,9.90
2022-08-04T10:09:55.098Z,10.60
2022-08-04T10:12:25.986Z,9.60
2022-08-04T10:14:56.771Z,9.90
2022-08-04T10:17:50.634Z,9.90
2022-08-04T10:21:01.444Z,9.40
2022-08-04T10:23:55.669Z,9.80
2022-08-04T10:26:29.531Z,9.30
2022-08-04T10:29:18.068Z,9.30
2022-08-04T10:31:49.788Z,9.60
2022-08-04T10:34:25.238Z,9.20
2022-08-04T10:40:35.425Z,9.00
2022-08-04T10:43:55.132Z,9.20
2022-08-04T10:46:37.029Z,9.10
2022-08-04T10:49:26.578Z,9.40
2022-08-04T10:52:04.353Z,9.90
2022-08-04T10:54:53.984Z,9.30
2022-08-04T10:57:41.237Z,9.20
2022-08-04T11:00:12.905Z,8.80
2022-08-04T11:03:11.081Z,9.30
2022-08-04T11:06:03.894Z,9.00
2022-08-04T11:08:39.110Z,8.40
2022-08-04T11:12:01.742Z,9.20
2022-08-04T11:14:43.946Z,8.80
2022-08-04T11:17:15.606Z,8.40
2022-08-04T11:19:53.603Z,8.10
2022-08-04T11:22:23.157Z,8.60
2022-08-04T11:24:55.423Z,8.50
2022-08-04T11:27:30.800Z,8.40
2022-08-04T11:30:09.139Z,7.50
2022-08-04T11:33:07.462Z,7.70
2022-08-04T11:35:55.812Z,7.90
2022-08-04T11:39:34.331Z,7.20
2022-08-04T11:42:48.901Z,7.60
2022-08-04T11:45:18.646Z,7.70
2022-08-04T11:47:50.881Z,6.80
2022-08-04T11:50:53.095Z,6.90
2022-08-04T11:53:24.503Z,6.90
2022-08-04T11:56:07.647Z,6.40
2022-08-04T11:58:55.770Z,7.50
2022-08-04T12:01:53.345Z,6.70
2022-08-04T12:04:32.302Z,7.70
2022-08-04T12:07:42.411Z,10.50
2022-08-04T12:10:41.855Z,10.70
2022-08-04T12:13:24.132Z,10.40
2022-08-04T12:16:17.774Z,10.20
2022-08-04T12:18:56.765Z,12.10
2022-08-04T12:21:24.847Z,11.20
2022-08-04T12:24:02.733Z,11.40
2022-08-04T12:26:38.574Z,11.10
2022-08-04T12:29:10.230Z,11.20
2022-08-04T12:31:48.938Z,11.00
2022-08-04T12:34:52.291Z,12.10
2022-08-04T12:37:26.206Z,11.50
2022-08-04T12:40:28.533Z,11.60
2022-08-04T12:43:06.321Z,11.80
2022-08-04T12:45:50.357Z,11.60
2022-08-04T12:48:21.413Z,12.00
2022-08-04T12:50:52.143Z,12.20
2022-08-04T12:53:32.265Z,10.90
2022-08-04T12:56:01.469Z,12.60
2022-08-04T12:58:41.919Z,11.70
2022-08-04T13:02:09.176Z,11.30
2022-08-04T13:04:33.348Z,12.80
2022-08-04T13:07:12.001Z,11.40
2022-08-04T13:09:45.110Z,12.40
2022-08-04T13:12:22.359Z,12.40
2022-08-04T13:14:54.425Z,13.00
2022-08-04T13:17:43.166Z,13.10
2022-08-04T13:20:14.154Z,12.20
2022-08-04T13:22:46.582Z,12.60
2022-08-04T13:26:40.723Z,13.20
2022-08-04T13:28:05.431Z,12.00
2022-08-04T13:31:02.029Z,12.20
2022-08-04T13:33:38.817Z,13.70
2022-08-04T13:36:07.253Z,12.70
2022-08-04T13:38:36.747Z,15.30
2022-08-04T13:41:05.426Z,13.30
2022-08-04T13:44:15.519Z,14.30
2022-08-04T13:46:27.821Z,15.70
2022-08-04T13:49:26.043Z,14.10
2022-08-04T13:52:01.167Z,13.40
2022-08-04T13:54:43.734Z,15.00
2022-08-04T13:57:16.486Z,15.30
2022-08-04T13:59:50.369Z,21.10
2022-08-04T14:02:52.035Z,12.90
2022-08-04T14:05:27.423Z,13.50
2022-08-04T14:08:12.390Z,12.90
2022-08-04T14:10:53.591Z,14.60
2022-08-04T14:13:29.959Z,14.20
2022-08-04T14:16:24.156Z,13.30
2022-08-04T14:19:01.209Z,14.10
2022-08-04T14:21:31.976Z,12.90
2022-08-04T14:24:00.753Z,13.10
2022-08-04T14:26:35.656Z,13.20
2022-08-04T14:29:26.500Z,12.30
2022-08-04T14:32:12.747Z,12.80
2022-08-04T14:34:45.697Z,11.70
2022-08-04T14:37:18.333Z,11.10
2022-08-04T14:40:18.538Z,13.90
2022-08-04T14:42:54.316Z,13.60
2022-08-04T14:45:37.584Z,13.40
2022-08-04T14:48:15.269Z,13.30
2022-08-04T14:50:47.811Z,13.90
2022-08-04T14:53:22.671Z,13.80
2022-08-04T14:55:54.669Z,13.50
2022-08-04T14:58:32.778Z,11.20
2022-08-04T15:01:10.169Z,11.70
2022-08-04T15:03:50.361Z,12.10
2022-08-04T15:06:28.413Z,12.60
2022-08-04T15:09:01.912Z,13.00
2022-08-04T15:11:41.509Z,13.10
2022-08-04T15:14:35.979Z,12.00
2022-08-04T15:17:00.360Z,11.70
2022-08-04T15:19:28.374Z,12.50
2022-08-04T15:21:56.045Z,12.80
2022-08-04T15:24:26.526Z,12.30
2022-08-04T15:26:53.978Z,12.60
2022-08-04T15:29:30.447Z,12.40
2022-08-04T15:32:18.682Z,13.80
2022-08-04T15:34:51.009Z,13.90
2022-08-04T15:37:30.397Z,12.70
2022-08-04T15:40:33.554Z,12.60
2022-08-04T15:43:16.926Z,11.70
2022-08-04T15:46:02.514Z,10.40
2022-08-04T15:48:48.367Z,11.60
2022-08-04T15:51:17.444Z,12.00
2022-08-04T15:54:03.207Z,11.40
2022-08-04T15:56:35.322Z,10.70
2022-08-04T15:59:02.613Z,11.10
2022-08-04T16:01:29.936Z,15.00
2022-08-04T16:04:00.146Z,13.80
2022-08-04T16:06:30.099Z,17.70
2022-08-04T16:08:59.729Z,20.30
2022-08-04T16:11:31.848Z,17.90
2022-08-04T16:14:05.240Z,15.20
2022-08-04T16:16:39.774Z,13.50
2022-08-04T16:19:08.870Z,12.20
2022-08-04T16:22:19.709Z,12.40
2022-08-04T16:24:54.804Z,12.00
2022-08-04T16:27:25.011Z,10.70
2022-08-04T16:30:12.062Z,10.90
2022-08-04T16:32:48.757Z,9.60
2022-08-04T16:35:29.269Z,11.00
2022-08-04T16:38:15.589Z,12.70
2022-08-04T16:40:46.098Z,19.10
2022-08-04T16:43:15.035Z,44.10
2022-08-04T16:45:54.616Z,26.70
2022-08-04T16:48:30.169Z,14.50
2022-08-04T16:51:03.153Z,14.40
2022-08-04T16:53:53.737Z,11.70
2022-08-04T16:56:29.230Z,12.60
2022-08-04T16:58:56.624Z,9.80
2022-08-04T17:01:32.928Z,16.90
2022-08-04T17:04:05.633Z,11.70
2022-08-04T17:06:35.946Z,16.50
2022-08-04T17:09:15.140Z,12.90
2022-08-04T17:11:43.318Z,14.20
2022-08-04T17:14:11.487Z,12.50
2022-08-04T17:16:40.854Z,11.50
2022-08-04T17:19:24.179Z,12.40
2022-08-04T17:24:41.564Z,12.10
2022-08-04T17:28:08.509Z,13.00
2022-08-04T17:29:56.264Z,12.30
2022-08-04T17:32:24.041Z,11.90
2022-08-04T17:34:53.519Z,11.60
2022-08-04T17:37:38.932Z,11.30
2022-08-04T17:40:22.669Z,13.70
2022-08-04T17:44:03.014Z,20.00
2022-08-04T17:46:30.208Z,36.00
2022-08-04T17:49:02.955Z,26.00
2022-08-04T17:52:05.548Z,16.20
2022-08-04T17:54:38.977Z,13.00
2022-08-04T17:57:16.001Z,12.60
2022-08-04T17:59:57.538Z,11.50
2022-08-04T18:02:32.685Z,11.80
2022-08-04T18:05:11.591Z,11.30
2022-08-04T18:08:34.622Z,10.30
2022-08-04T18:10:55.811Z,9.00
2022-08-04T18:13:26.579Z,9.50
2022-08-04T18:16:14.513Z,8.60
2022-08-04T18:19:10.453Z,8.70
2022-08-04T18:21:46.025Z,9.10
2022-08-04T18:24:34.482Z,8.50
2022-08-04T18:27:20.329Z,7.90
2022-08-04T18:29:50.219Z,8.00
2022-08-04T18:32:36.321Z,7.30
2022-08-04T18:38:06.034Z,7.00
2022-08-04T18:40:54.644Z,7.10
2022-08-04T18:43:27.918Z,7.10
2022-08-04T18:45:59.811Z,7.30
2022-08-04T18:48:36.691Z,7.00
2022-08-04T18:51:22.518Z,8.20
2022-08-04T18:53:58.494Z,6.90
2022-08-04T18:59:01.627Z,6.60
2022-08-04T19:02:09.215Z,6.50
2022-08-04T19:04:33.031Z,5.80
2022-08-04T19:07:23.532Z,6.40
2022-08-04T19:09:52.548Z,6.10
2022-08-04T19:12:26.580Z,6.10
2022-08-04T19:14:58.571Z,5.60
2022-08-04T19:17:54.197Z,5.80
2022-08-04T19:20:16.057Z,5.30
2022-08-04T19:24:10.773Z,6.30
2022-08-04T19:25:59.303Z,5.40
2022-08-04T19:28:29.909Z,5.70
2022-08-04T19:30:59.464Z,6.00
2022-08-04T19:33:30.442Z,5.20
2022-08-04T19:36:17.341Z,5.60
2022-08-04T19:38:44.885Z,5.20
2022-08-04T19:41:14.517Z,6.10
2022-08-04T19:43:43.994Z,5.80
2022-08-04T19:46:12.067Z,6.90
2022-08-04T19:48:40.675Z,6.10
2022-08-04T19:51:08.147Z,8.70
2022-08-04T19:53:37.321Z,8.00
2022-08-04T19:56:05.627Z,6.60
2022-08-04T19:58:33.047Z,5.80
2022-08-04T20:01:00.641Z,5.80
2022-08-04T20:04:09.049Z,5.90
2022-08-04T20:06:15.278Z,6.50
2022-08-04T20:08:48.337Z,6.10
2022-08-04T20:11:18.448Z,5.50
2022-08-04T20:13:54.303Z,6.60
2022-08-04T20:16:29.697Z,5.50
2022-08-04T20:19:03.389Z,5.90
2022-08-04T20:21:53.822Z,6.10
2022-08-04T20:24:40.298Z,5.90
2022-08-04T20:27:09.031Z,5.70
2022-08-04T20:29:49.220Z,6.50
2022-08-04T20:32:19.238Z,6.20
2022-08-04T20:34:48.651Z,5.90
2022-08-04T20:37:16.389Z,6.30
2022-08-04T20:39:44.139Z,5.90
2022-08-04T20:42:12.320Z,13.90
2022-08-04T20:44:42.110Z,9.30
2022-08-04T20:47:09.728Z,6.80
2022-08-04T20:49:40.397Z,7.00
2022-08-04T20:52:16.386Z,6.70
2022-08-04T20:54:48.447Z,6.90
2022-08-04T20:57:16.613Z,6.40
2022-08-04T21:02:31.988Z,6.50
2022-08-04T21:04:59.285Z,6.30
2022-08-04T21:07:26.643Z,5.90
2022-08-04T21:09:54.622Z,6.50
2022-08-04T21:12:28.441Z,6.20
2022-08-04T21:15:13.547Z,6.70
2022-08-04T21:17:59.454Z,6.30
2022-08-04T21:20:32.287Z,7.70
2022-08-04T21:23:02.316Z,6.80
2022-08-04T21:25:31.030Z,6.50
2022-08-04T21:27:58.492Z,7.60
2022-08-04T21:30:27.057Z,5.80
2022-08-04T21:32:55.171Z,6.10
2022-08-04T21:35:37.132Z,6.90
2022-08-04T21:38:16.283Z,6.80
2022-08-04T21:41:11.099Z,6.50
2022-08-04T21:43:47.362Z,7.10
2022-08-04T21:46:15.183Z,7.40
2022-08-04T21:48:45.562Z,6.60
2022-08-04T21:51:58.582Z,7.50
2022-08-04T21:54:16.862Z,7.20
2022-08-04T21:56:50.900Z,6.70
2022-08-04T21:59:23.277Z,6.40
2022-08-04T22:04:38.792Z,6.40
2022-08-04T22:07:06.233Z,6.70
2022-08-04T22:09:38.933Z,6.50
2022-08-04T22:12:12.156Z,6.40
2022-08-04T22:14:39.845Z,6.10
2022-08-04T22:17:06.972Z,5.80
2022-08-04T22:19:55.482Z,6.50
2022-08-04T22:22:27.024Z,6.10
2022-08-04T22:24:59.996Z,5.90
2022-08-04T22:27:47.299Z,5.50
2022-08-04T22:30:17.195Z,6.40
2022-08-04T22:32:48.227Z,6.20
2022-08-04T22:35:43.118Z,6.10
2022-08-04T22:38:23.038Z,5.90
2022-08-04T22:40:59.633Z,6.20
2022-08-04T22:43:32.635Z,6.40
2022-08-04T22:46:03.747Z,6.40
2022-08-04T22:48:33.153Z,6.60
2022-08-04T22:51:01.358Z,6.20
2022-08-04T22:53:30.113Z,6.30
2022-08-04T22:56:09.370Z,6.30
2022-08-04T22:58:39.949Z,6.70
2022-08-04T23:01:09.078Z,6.30
2022-08-04T23:03:38.664Z,6.80
2022-08-04T23:06:11.082Z,7.60
2022-08-04T23:08:43.130Z,7.40
2022-08-04T23:11:15.806Z,6.70
2022-08-04T23:13:43.303Z,7.10
2022-08-04T23:16:11.281Z,7.00
2022-08-04T23:18:40.236Z,6.70
2022-08-04T23:21:09.869Z,6.50
2022-08-04T23:23:45.548Z,6.80
2022-08-04T23:26:27.756Z,6.30
2022-08-04T23:28:56.750Z,6.80
2022-08-04T23:31:41.478Z,7.20
2022-08-04T23:34:14.474Z,6.90
2022-08-04T23:36:45.917Z,7.00
2022-08-04T23:39:14.982Z,6.90
2022-08-04T23:41:54.561Z,6.30
2022-08-04T23:44:25.306Z,6.00
2022-08-04T23:47:00.954Z,6.20
2022-08-04T23:49:44.177Z,6.70
2022-08-04T23:52:27.791Z,6.40
2022-08-04T23:56:53.506Z,5.90
2022-08-04T23:59:50.896Z,6.30
